Time;durP1;ratioP1;P1;durP2;ratioP2;P2;SDS_P1;SDS_P2;PMS_P1;PMS_P2;Temp;Humidity;BMP_temperature;BMP_pressure;BME280_temperature;BME280_humidity;BME280_pressure;Samples;Min_cycle;Max_cycle;Signal;HPM_P1;HPM_P2
2021/10/28 04:33:16;;;;;;;25.37;16.00;;;4.00;99.90;;;;;;5024990;28;20466;-71
2021/10/28 04:35:42;;;;;;;30.37;17.97;;;4.00;99.90;;;;;;5029450;28;20431;-75
2021/10/28 04:38:09;;;;;;;34.17;18.90;;;3.90;99.90;;;;;;5029877;28;20180;-76
2021/10/28 04:40:34;;;;;;;31.13;18.63;;;3.80;99.90;;;;;;5032003;28;20813;-73
2021/10/28 04:43:00;;;;;;;29.83;17.90;;;3.80;99.90;;;;;;5028796;28;20447;-74
2021/10/28 04:45:25;;;;;;;32.43;18.10;;;3.80;99.90;;;;;;5032292;28;20173;-75
2021/10/28 04:47:51;;;;;;;34.23;18.10;;;3.80;99.90;;;;;;5026266;28;20191;-75
2021/10/28 04:50:16;;;;;;;28.97;18.47;;;3.70;99.90;;;;;;5029787;28;20179;-74
2021/10/28 04:52:42;;;;;;;28.20;18.50;;;3.70;99.90;;;;;;5029808;28;20211;-75
2021/10/28 04:55:09;;;;;;;27.70;17.17;;;3.70;99.90;;;;;;5032032;28;20566;-74
2021/10/28 04:57:34;;;;;;;32.70;18.80;;;3.70;99.90;;;;;;5029711;28;20184;-74
2021/10/28 05:00:04;;;;;;;31.80;16.70;;;3.80;99.90;;;;;;5029035;28;20424;-75
2021/10/28 05:02:29;;;;;;;31.50;19.53;;;3.90;99.90;;;;;;5026447;28;20194;-75
2021/10/28 05:04:55;;;;;;;34.53;19.03;;;3.90;99.90;;;;;;5030004;28;20419;-74
2021/10/28 05:07:21;;;;;;;30.00;18.37;;;4.00;99.90;;;;;;5031786;28;20238;-74
2021/10/28 05:09:46;;;;;;;27.80;18.33;;;4.00;99.90;;;;;;5031731;28;20172;-74
2021/10/28 05:12:12;;;;;;;33.13;19.43;;;4.10;99.90;;;;;;5029151;28;20293;-74
2021/10/28 05:14:38;;;;;;;31.17;19.53;;;4.20;99.90;;;;;;5029468;28;20747;-74
2021/10/28 05:17:03;;;;;;;29.73;18.33;;;4.20;99.90;;;;;;5031402;28;20432;-73
2021/10/28 05:19:31;;;;;;;39.30;22.10;;;4.30;99.90;;;;;;5029318;28;20185;-75
2021/10/28 05:21:56;;;;;;;35.83;20.37;;;4.30;99.90;;;;;;5031420;28;20427;-75
2021/10/28 05:24:22;;;;;;;30.43;19.10;;;4.40;99.90;;;;;;5027090;28;20440;-76
2021/10/28 05:26:47;;;;;;;33.80;19.43;;;4.40;99.90;;;;;;5031624;28;20207;-74
2021/10/28 05:29:13;;;;;;;29.53;18.87;;;4.50;99.90;;;;;;5028698;28;20192;-75
2021/10/28 05:31:38;;;;;;;31.80;20.17;;;4.50;99.90;;;;;;5029857;28;20233;-73
2021/10/28 05:34:04;;;;;;;33.30;19.50;;;4.70;99.90;;;;;;5022095;28;20251;-75
2021/10/28 05:36:29;;;;;;;31.07;18.67;;;4.70;99.90;;;;;;5030348;28;20203;-74
2021/10/28 05:38:55;;;;;;;36.37;20.20;;;4.80;99.90;;;;;;5029005;28;20183;-75
2021/10/28 05:41:21;;;;;;;38.77;21.20;;;4.80;99.90;;;;;;5031388;28;20196;-72
2021/10/28 05:43:46;;;;;;;34.57;20.47;;;4.90;99.90;;;;;;5030229;28;20527;-72
2021/10/28 05:46:12;;;;;;;36.90;22.47;;;5.00;99.90;;;;;;5029695;28;20183;-74
2021/10/28 05:48:38;;;;;;;37.10;20.80;;;5.10;99.90;;;;;;5029069;28;20224;-71
2021/10/28 05:51:04;;;;;;;37.97;20.70;;;5.20;99.90;;;;;;5028861;28;20571;-73
2021/10/28 05:53:30;;;;;;;41.60;24.70;;;5.20;99.90;;;;;;5030946;28;20469;-74
2021/10/28 05:55:56;;;;;;;45.13;23.90;;;5.30;99.90;;;;;;5026968;28;21003;-72
2021/10/28 05:58:22;;;;;;;38.83;22.80;;;5.30;99.90;;;;;;5031128;28;21040;-72
2021/10/28 06:00:48;;;;;;;38.43;23.03;;;5.40;99.90;;;;;;5028886;28;20455;-72
2021/10/28 06:03:13;;;;;;;40.63;21.50;;;5.40;99.90;;;;;;5028507;28;20418;-72
2021/10/28 06:05:39;;;;;;;33.30;19.93;;;5.50;99.90;;;;;;5028987;28;20193;-72
2021/10/28 06:08:05;;;;;;;41.07;23.03;;;5.40;99.90;;;;;;5028394;28;20221;-72
2021/10/28 06:10:31;;;;;;;35.90;21.30;;;5.40;99.90;;;;;;5028826;28;20446;-73
2021/10/28 06:13:01;;;;;;;30.67;20.93;;;5.40;99.90;;;;;;5030584;28;20433;-72
2021/10/28 06:15:29;;;;;;;37.97;20.77;;;5.30;99.90;;;;;;5029073;28;20827;-72
2021/10/28 06:20:21;;;;;;;26.73;18.07;;;5.30;99.90;;;;;;5028237;28;20479;-70
2021/10/28 06:22:48;;;;;;;30.40;20.00;;;5.20;99.90;;;;;;5029277;28;20216;-71
2021/10/28 06:25:14;;;;;;;26.50;17.40;;;5.20;99.90;;;;;;5030893;28;20529;-71
2021/10/28 06:27:40;;;;;;;30.27;20.23;;;5.20;99.90;;;;;;5026965;28;20444;-71
2021/10/28 06:30:06;;;;;;;36.03;22.10;;;5.30;99.90;;;;;;5030727;28;20420;-72
2021/10/28 06:32:33;;;;;;;35.37;22.07;;;5.40;99.90;;;;;;5025297;28;20518;-71
2021/10/28 06:35:01;;;;;;;33.60;22.77;;;5.50;99.90;;;;;;5027181;28;20473;-71
2021/10/28 06:37:28;;;;;;;32.90;20.40;;;5.60;99.90;;;;;;5030407;28;20619;-72
2021/10/28 06:39:53;;;;;;;37.90;21.90;;;5.80;99.90;;;;;;5034285;28;20439;-72
2021/10/28 06:42:19;;;;;;;37.73;21.13;;;5.80;99.90;;;;;;5033103;28;20491;-72
2021/10/28 06:44:44;;;;;;;34.03;21.00;;;5.80;99.90;;;;;;5034339;28;20174;-72
2021/10/28 06:47:10;;;;;;;30.97;19.47;;;5.90;99.90;;;;;;5032183;28;20190;-71
2021/10/28 06:49:39;;;;;;;30.30;20.80;;;6.00;99.90;;;;;;5027587;28;20175;-72
2021/10/28 06:52:08;;;;;;;34.30;19.80;;;6.00;99.90;;;;;;5032013;28;20287;-71
2021/10/28 06:54:36;;;;;;;27.90;18.40;;;6.10;99.90;;;;;;5034151;28;20461;-73
2021/10/28 07:02:35;;;;;;;31.77;18.47;;;6.60;99.90;;;;;;5031909;28;20462;-72
2021/10/28 07:05:02;;;;;;;24.00;17.80;;;6.90;99.90;;;;;;5029417;28;20808;-73
2021/10/28 07:07:30;;;;;;;23.73;16.67;;;7.40;99.90;;;;;;5033147;28;20975;-71
2021/10/28 07:10:06;;;;;;;22.00;15.40;;;8.20;99.90;;;;;;5029446;28;20435;-72
2021/10/28 07:15:08;;;;;;;20.53;13.03;;;9.80;99.90;;;;;;5031908;28;20978;-72
2021/10/28 07:17:42;;;;;;;16.53;11.80;;;10.60;99.90;;;;;;5033846;28;20401;-72
2021/10/28 07:20:36;;;;;;;18.37;13.00;;;11.40;99.90;;;;;;5028546;28;20489;-72
2021/10/28 07:56:04;;;;;;;21.40;15.00;;;9.80;99.90;;;;;;5031306;28;20478;-71
2021/10/28 08:13:28;;;;;;;25.50;16.70;;;10.10;99.90;;;;;;5021488;28;20542;-72
2021/10/28 08:15:01;;;;;;;22.50;15.30;;;10.50;99.90;;;;;;5032494;28;20482;-73
2021/10/28 08:20:28;;;;;;;25.77;15.40;;;10.70;99.90;;;;;;5030170;28;20500;-72
2021/10/28 08:31:03;;;;;;;28.33;17.37;;;11.10;99.90;;;;;;5032091;28;20955;-72
2021/10/28 08:33:29;;;;;;;25.57;15.23;;;11.30;99.90;;;;;;5024401;28;20479;-72
2021/10/28 08:36:06;;;;;;;21.63;16.00;;;11.20;99.90;;;;;;5029817;28;20190;-72
2021/10/28 08:38:31;;;;;;;20.60;14.17;;;11.30;99.90;;;;;;5029958;28;20537;-72
2021/10/28 08:40:57;;;;;;;16.33;13.17;;;11.40;99.90;;;;;;5031988;28;20511;-72
2021/10/28 08:43:28;;;;;;;20.83;14.90;;;11.70;99.90;;;;;;5027626;28;20214;-72
2021/10/28 08:45:54;;;;;;;22.77;15.03;;;11.90;99.90;;;;;;5032197;28;20188;-72
2021/10/28 08:48:26;;;;;;;18.97;13.70;;;12.00;99.90;;;;;;5025010;28;20436;-72
2021/10/28 08:51:03;;;;;;;18.77;13.30;;;12.40;99.90;;;;;;5031959;28;20445;-72
2021/10/28 08:53:58;;;;;;;20.40;13.67;;;12.70;99.90;;;;;;5027928;28;20482;-72
2021/10/28 08:56:46;;;;;;;17.60;13.77;;;13.00;99.90;;;;;;5010771;28;20460;-73
2021/10/28 08:59:39;;;;;;;17.70;13.10;;;13.00;99.90;;;;;;5024381;28;20457;-72
2021/10/28 09:24:47;;;;;;;14.03;12.33;;;14.40;99.90;;;;;;5029182;28;20863;-72
2021/10/28 09:27:21;;;;;;;15.83;12.50;;;14.30;99.90;;;;;;5029289;28;20417;-71
2021/10/28 09:35:20;;;;;;;23.50;13.80;;;14.90;99.90;;;;;;5023707;28;20444;-72
2021/10/28 09:51:31;;;;;;;15.87;11.47;;;16.10;99.90;;;;;;5029052;28;20455;-73
2021/10/28 09:54:17;;;;;;;15.90;12.00;;;16.40;99.90;;;;;;5013181;28;20850;-72
2021/10/28 09:59:41;;;;;;;19.80;13.73;;;16.80;99.90;;;;;;5031492;28;20523;-72
2021/10/28 10:02:45;;;;;;;18.57;14.07;;;16.80;99.90;;;;;;5029115;28;20587;-70
2021/10/28 10:05:21;;;;;;;27.93;13.20;;;16.90;99.90;;;;;;5028850;28;20447;-72
2021/10/28 10:07:58;;;;;;;18.60;13.30;;;17.00;99.90;;;;;;5029775;28;20432;-71
2021/10/28 10:10:26;;;;;;;16.97;14.17;;;17.00;99.90;;;;;;5035018;28;20760;-72
2021/10/28 10:12:52;;;;;;;14.47;12.60;;;17.10;99.90;;;;;;5032317;28;20480;-73
2021/10/28 10:15:19;;;;;;;17.60;13.90;;;17.10;99.90;;;;;;5034731;28;20419;-72
2021/10/28 10:17:52;;;;;;;15.83;12.83;;;16.90;99.90;;;;;;5029871;28;20925;-72
2021/10/28 10:20:20;;;;;;;17.97;13.10;;;16.80;99.90;;;;;;5030679;28;20431;-72
2021/10/28 10:23:02;;;;;;;17.40;13.70;;;16.60;99.90;;;;;;5032275;28;20468;-73
2021/10/28 10:25:39;;;;;;;19.97;14.00;;;16.60;99.90;;;;;;5034760;28;20416;-73
2021/10/28 10:28:48;;;;;;;24.57;13.00;;;16.70;99.90;;;;;;5031779;28;20436;-73
2021/10/28 12:14:30;;;;;;;18.63;14.40;;;17.00;99.90;;;;;;5030754;28;20535;-73
2021/10/28 12:16:16;;;;;;;20.60;14.37;;;16.60;99.90;;;;;;5032453;28;20431;-73
2021/10/28 12:24:38;;;;;;;21.30;14.27;;;16.70;99.90;;;;;;5028380;28;20982;-72
2021/10/28 12:55:21;;;;;;;19.50;14.53;;;16.10;99.90;;;;;;5027764;28;20468;-72
2021/10/28 13:49:52;;;;;;;12.30;10.07;;;15.60;99.90;;;;;;5032926;28;20451;-72
2021/10/28 14:38:05;;;;;;;16.57;11.70;;;15.40;99.90;;;;;;5034905;28;20415;-72
2021/10/28 15:02:53;;;;;;;16.67;10.83;;;15.10;99.90;;;;;;5031550;28;20818;-73
2021/10/28 15:35:13;;;;;;;17.20;14.07;;;14.20;99.90;;;;;;5026708;28;20475;-72
2021/10/28 15:40:35;;;;;;;24.67;15.70;;;14.10;99.90;;;;;;5033283;28;20404;-73
2021/10/28 16:23:29;;;;;;;16.13;9.80;;;11.40;99.90;;;;;;5030311;28;20506;-72
2021/10/28 16:25:55;;;;;;;15.13;8.23;;;11.30;99.90;;;;;;5030234;28;20448;-72
2021/10/28 16:28:21;;;;;;;11.87;8.60;;;11.20;99.90;;;;;;5030051;28;20194;-72
2021/10/28 16:30:47;;;;;;;14.17;9.17;;;11.00;99.90;;;;;;5032458;28;20269;-72
2021/10/28 16:33:13;;;;;;;19.00;9.50;;;10.80;99.90;;;;;;5029732;28;20953;-72
2021/10/28 16:35:40;;;;;;;18.30;10.13;;;10.70;99.90;;;;;;5026017;28;20440;-74
2021/10/28 16:38:08;;;;;;;15.10;10.87;;;10.60;99.90;;;;;;5032037;28;20824;-75
2021/10/28 16:40:34;;;;;;;16.60;11.90;;;10.50;99.90;;;;;;5030092;28;20515;-74
2021/10/28 16:42:59;;;;;;;13.63;10.63;;;10.40;99.90;;;;;;5031937;28;20562;-75
2021/10/28 16:45:25;;;;;;;15.20;11.30;;;10.40;99.90;;;;;;5027902;28;20683;-75
2021/10/28 16:47:50;;;;;;;13.97;10.10;;;10.30;99.90;;;;;;5032089;28;20271;-74
2021/10/28 16:50:16;;;;;;;14.47;10.20;;;10.20;99.90;;;;;;5028927;28;20186;-75
2021/10/28 16:52:42;;;;;;;13.93;9.77;;;10.10;99.90;;;;;;5031765;28;20233;-75
2021/10/28 16:55:08;;;;;;;14.03;10.23;;;10.00;99.90;;;;;;5028865;28;20558;-74
2021/10/28 16:57:34;;;;;;;15.37;10.63;;;9.80;99.90;;;;;;5030853;28;20186;-75
2021/10/28 16:59:59;;;;;;;19.63;9.47;;;9.80;99.90;;;;;;5029572;28;20455;-75
2021/10/28 17:02:25;;;;;;;14.33;10.03;;;9.70;99.90;;;;;;5031993;28;20266;-75
2021/10/28 17:04:50;;;;;;;15.40;10.77;;;9.60;99.90;;;;;;5027604;28;20675;-75
2021/10/28 17:07:16;;;;;;;18.63;12.97;;;9.50;99.90;;;;;;5031753;28;20599;-75
2021/10/28 17:09:42;;;;;;;18.43;12.33;;;9.40;99.90;;;;;;5031376;28;20291;-75
2021/10/28 17:12:08;;;;;;;15.67;11.73;;;9.30;99.90;;;;;;5029581;28;20221;-74
2021/10/28 17:14:34;;;;;;;16.90;10.60;;;9.20;99.90;;;;;;5031735;28;20621;-75
2021/10/28 17:17:00;;;;;;;15.60;10.97;;;9.10;99.90;;;;;;5030898;28;20550;-75
2021/10/28 17:19:26;;;;;;;16.07;10.80;;;9.10;99.90;;;;;;5037105;28;20184;-74
2021/10/28 17:21:52;;;;;;;16.20;10.70;;;9.00;99.90;;;;;;5029711;28;20200;-75
2021/10/28 17:24:26;;;;;;;20.03;11.57;;;9.00;99.90;;;;;;5031263;28;20423;-76
2021/10/28 17:26:52;;;;;;;15.10;9.70;;;8.90;99.90;;;;;;5027479;28;20188;-76
2021/10/28 17:29:18;;;;;;;16.13;11.63;;;8.80;99.90;;;;;;5031303;28;21056;-76
2021/10/28 17:31:43;;;;;;;17.23;11.57;;;8.70;99.90;;;;;;5027985;28;20294;-75
2021/10/28 17:34:09;;;;;;;25.43;12.63;;;8.70;99.90;;;;;;5024478;28;20749;-75
2021/10/28 17:36:35;;;;;;;20.47;13.47;;;8.60;99.90;;;;;;5029792;28;20188;-75
2021/10/28 17:39:00;;;;;;;18.03;12.10;;;8.50;99.90;;;;;;5031355;28;20172;-75
2021/10/28 17:41:26;;;;;;;17.07;13.00;;;8.50;99.90;;;;;;5029104;28;20213;-76
2021/10/28 17:43:55;;;;;;;25.50;13.57;;;8.40;99.90;;;;;;5031140;28;20194;-75
2021/10/28 17:46:24;;;;;;;18.83;12.90;;;8.40;99.90;;;;;;5031292;28;20782;-75
2021/10/28 17:48:50;;;;;;;18.23;13.67;;;8.30;99.90;;;;;;5028741;28;20454;-75
2021/10/28 17:51:17;;;;;;;14.70;12.20;;;8.30;99.90;;;;;;5024494;28;20465;-75
2021/10/28 17:53:44;;;;;;;17.40;11.70;;;8.20;99.90;;;;;;5029282;28;21096;-73
2021/10/28 17:56:14;;;;;;;19.13;12.43;;;8.20;99.90;;;;;;5031128;28;20505;-76
2021/10/28 17:58:40;;;;;;;25.47;14.60;;;8.10;99.90;;;;;;5027178;28;20427;-75
2021/10/28 18:01:06;;;;;;;21.10;14.07;;;8.10;99.90;;;;;;5031200;28;20500;-75
2021/10/28 18:03:32;;;;;;;20.33;13.20;;;8.00;99.90;;;;;;5029243;28;20447;-75
2021/10/28 18:05:58;;;;;;;20.00;12.03;;;8.00;99.90;;;;;;5029116;28;20223;-76
2021/10/28 18:08:24;;;;;;;18.67;12.47;;;7.90;99.90;;;;;;5028957;28;20968;-75
2021/10/28 18:10:49;;;;;;;18.37;12.40;;;7.90;99.90;;;;;;5028891;28;20664;-75
2021/10/28 18:13:17;;;;;;;21.93;13.37;;;7.90;99.90;;;;;;5028981;28;21525;-76
2021/10/28 18:15:43;;;;;;;23.60;13.80;;;7.80;99.90;;;;;;5031240;28;20180;-75
2021/10/28 18:18:09;;;;;;;19.90;12.70;;;7.80;99.90;;;;;;5028972;28;20948;-75
2021/10/28 18:20:36;;;;;;;23.33;13.20;;;7.70;99.90;;;;;;5024571;28;20185;-74
2021/10/28 18:23:02;;;;;;;25.10;11.90;;;7.60;99.90;;;;;;5030741;28;20416;-75
2021/10/28 18:25:27;;;;;;;17.87;12.83;;;7.60;99.90;;;;;;5028793;28;20440;-75
2021/10/28 18:27:56;;;;;;;22.23;12.63;;;7.60;99.90;;;;;;5033172;28;20976;-75
2021/10/28 18:30:24;;;;;;;22.00;12.77;;;7.50;99.90;;;;;;5030397;28;20270;-76
2021/10/28 18:32:50;;;;;;;20.73;12.90;;;7.50;99.90;;;;;;5034191;28;20466;-75
2021/10/28 18:35:16;;;;;;;19.63;12.67;;;7.50;99.90;;;;;;5027836;28;20469;-75
2021/10/28 18:37:43;;;;;;;19.20;11.50;;;7.40;99.90;;;;;;5034619;28;20494;-75
2021/10/28 18:40:09;;;;;;;18.47;12.60;;;7.40;99.90;;;;;;5030057;28;20192;-75
2021/10/28 18:42:35;;;;;;;24.47;13.00;;;7.30;99.90;;;;;;5033203;28;20794;-75
2021/10/28 18:45:02;;;;;;;22.70;11.17;;;7.30;99.90;;;;;;5031994;28;20469;-75
2021/10/28 18:47:28;;;;;;;21.73;13.97;;;7.30;99.90;;;;;;5034469;28;20417;-76
2021/10/28 18:49:54;;;;;;;12.80;11.50;;;7.20;99.90;;;;;;5032062;28;20451;-75
2021/10/28 18:52:19;;;;;;;20.77;12.33;;;7.20;99.90;;;;;;5031686;28;20216;-75
2021/10/28 18:54:46;;;;;;;22.83;11.67;;;7.10;99.90;;;;;;5032409;28;20864;-75
2021/10/28 18:57:13;;;;;;;20.57;13.00;;;7.10;99.90;;;;;;5034224;28;20181;-75
2021/10/28 18:59:40;;;;;;;22.70;13.57;;;7.00;99.90;;;;;;5034726;28;20911;-75
2021/10/28 19:02:08;;;;;;;20.53;13.17;;;7.00;99.90;;;;;;5030348;28;20483;-74
2021/10/28 19:04:34;;;;;;;25.17;13.90;;;6.90;99.90;;;;;;5031985;28;20547;-75
2021/10/28 19:07:00;;;;;;;18.73;13.30;;;6.90;99.90;;;;;;5032328;28;20430;-75
2021/10/28 19:09:25;;;;;;;20.87;11.80;;;6.90;99.90;;;;;;5033966;28;20412;-75
2021/10/28 19:11:51;;;;;;;18.13;12.00;;;6.80;99.90;;;;;;5029732;28;20836;-76
2021/10/28 19:14:17;;;;;;;18.00;12.07;;;6.80;99.90;;;;;;5033407;28;20200;-75
2021/10/28 19:16:43;;;;;;;19.00;12.63;;;6.70;99.90;;;;;;5032139;28;20181;-76
2021/10/28 19:19:09;;;;;;;22.83;15.57;;;6.70;99.90;;;;;;5033727;28;20734;-75
2021/10/28 19:21:35;;;;;;;17.80;13.57;;;6.60;99.90;;;;;;5029427;28;20284;-75
2021/10/28 19:24:01;;;;;;;18.47;12.37;;;6.60;99.90;;;;;;5033419;28;20412;-75
2021/10/28 19:26:26;;;;;;;16.27;11.33;;;6.60;99.90;;;;;;5031575;28;20237;-75
2021/10/28 19:28:52;;;;;;;22.13;11.97;;;6.60;99.90;;;;;;5033830;28;20414;-75
2021/10/28 19:31:22;;;;;;;17.60;12.20;;;6.50;99.90;;;;;;5031256;28;20203;-75
2021/10/28 19:33:50;;;;;;;22.23;12.50;;;6.40;99.90;;;;;;5024627;28;20218;-75
2021/10/28 19:36:38;;;;;;;17.63;12.30;;;6.40;99.90;;;;;;5031235;28;20862;-75
2021/10/28 19:47:04;;;;;;;31.37;13.70;;;6.30;99.90;;;;;;5031747;28;20416;-75
2021/10/28 19:49:30;;;;;;;21.53;13.67;;;6.20;99.90;;;;;;5030833;28;20494;-75
2021/10/28 19:51:56;;;;;;;21.60;13.50;;;6.20;99.90;;;;;;5030159;28;20454;-75
2021/10/28 19:54:22;;;;;;;25.50;13.63;;;6.10;99.90;;;;;;5029046;28;20548;-75
2021/10/28 19:56:49;;;;;;;33.33;14.00;;;6.10;99.90;;;;;;5033294;28;20418;-75
2021/10/28 19:59:17;;;;;;;21.00;13.50;;;6.00;99.90;;;;;;5030608;28;20806;-75
2021/10/28 20:01:53;;;;;;;21.20;14.60;;;6.00;99.90;;;;;;5033016;28;20577;-75
2021/10/28 20:22:36;;;;;;;20.23;12.37;;;5.80;99.90;;;;;;5032601;28;20422;-75
2021/10/28 20:25:04;;;;;;;20.50;13.00;;;5.80;99.90;;;;;;5028659;28;20429;-75
2021/10/28 20:27:30;;;;;;;37.87;21.67;;;5.70;99.90;;;;;;5012989;28;20432;-75
2021/10/28 20:29:56;;;;;;;27.00;16.27;;;5.70;99.90;;;;;;5020586;28;20441;-75
2021/10/28 20:32:22;;;;;;;21.30;14.60;;;5.70;99.90;;;;;;5032053;28;20811;-75
2021/10/28 20:37:33;;;;;;;35.53;16.60;;;5.60;99.90;;;;;;5031074;28;20836;-75
2021/10/28 20:39:59;;;;;;;22.40;15.20;;;5.50;99.90;;;;;;5029894;28;20436;-75
2021/10/28 20:42:36;;;;;;;22.30;14.90;;;5.50;99.90;;;;;;5031861;28;20572;-75
2021/10/28 20:45:05;;;;;;;27.20;15.33;;;5.50;99.90;;;;;;5030140;28;20198;-75
2021/10/28 20:47:31;;;;;;;24.83;15.07;;;5.50;99.90;;;;;;5030270;28;20448;-75
2021/10/28 20:49:57;;;;;;;25.23;16.57;;;5.40;99.90;;;;;;5027980;28;20433;-75
2021/10/28 20:52:23;;;;;;;21.43;15.07;;;5.40;99.90;;;;;;5028978;28;20206;-74
2021/10/28 20:54:48;;;;;;;23.87;14.73;;;5.40;99.90;;;;;;5031975;28;20534;-75
2021/10/28 20:57:14;;;;;;;21.13;14.27;;;5.40;99.90;;;;;;5028286;28;20673;-75
2021/10/28 20:59:40;;;;;;;21.03;14.10;;;5.30;99.90;;;;;;5031146;28;20296;-75
2021/10/28 21:02:05;;;;;;;22.80;13.83;;;5.30;99.90;;;;;;5028848;28;20212;-73
2021/10/28 21:04:31;;;;;;;28.10;14.60;;;5.30;99.90;;;;;;5030536;28;20554;-75
2021/10/28 21:06:57;;;;;;;23.27;15.07;;;5.30;99.90;;;;;;5028618;28;20193;-75
2021/10/28 21:09:22;;;;;;;22.17;13.87;;;5.30;99.90;;;;;;5031582;28;20186;-75
2021/10/28 21:11:48;;;;;;;22.40;14.30;;;5.20;99.90;;;;;;5029764;28;20218;-75
2021/10/28 21:14:14;;;;;;;20.20;13.63;;;5.20;99.90;;;;;;5031165;28;20259;-75
2021/10/28 21:16:40;;;;;;;25.67;14.97;;;5.20;99.90;;;;;;5029667;28;20430;-75
2021/10/28 21:19:06;;;;;;;22.57;14.17;;;5.20;99.90;;;;;;5029348;28;20940;-75
2021/10/28 21:21:32;;;;;;;25.13;14.03;;;5.20;99.90;;;;;;5027200;28;20447;-76
2021/10/28 21:23:58;;;;;;;24.63;13.93;;;5.20;99.90;;;;;;5030142;28;20471;-75
2021/10/28 21:26:24;;;;;;;21.60;13.57;;;5.10;99.90;;;;;;5030365;28;20184;-75
2021/10/28 21:28:49;;;;;;;24.80;14.80;;;5.10;99.90;;;;;;5028934;28;20193;-75
2021/10/28 21:31:15;;;;;;;20.57;14.50;;;5.10;99.90;;;;;;5031128;28;20503;-74
2021/10/28 21:33:41;;;;;;;23.00;13.60;;;5.10;99.90;;;;;;5029027;28;20208;-75
2021/10/28 21:36:07;;;;;;;20.43;14.33;;;5.00;99.90;;;;;;5024426;28;20512;-75
2021/10/28 21:38:33;;;;;;;27.13;15.53;;;5.00;99.90;;;;;;5011667;28;20205;-75
2021/10/28 21:40:59;;;;;;;25.20;14.80;;;5.00;99.90;;;;;;5011649;28;20441;-75
2021/10/28 21:43:25;;;;;;;25.23;15.17;;;5.00;99.90;;;;;;5011409;28;20478;-75
2021/10/28 21:45:51;;;;;;;19.33;14.93;;;4.90;99.90;;;;;;5023032;28;20675;-75
2021/10/28 21:48:21;;;;;;;21.20;14.63;;;4.90;99.90;;;;;;5028758;28;20185;-74
2021/10/28 21:50:57;;;;;;;25.20;14.77;;;5.00;99.90;;;;;;5019113;28;20424;-74
2021/10/28 21:53:23;;;;;;;24.87;15.60;;;5.00;99.90;;;;;;5028149;28;20905;-75
2021/10/28 21:56:07;;;;;;;23.37;15.47;;;5.00;99.90;;;;;;5029024;28;20658;-75
2021/10/28 22:01:14;;;;;;;24.53;14.93;;;4.90;99.90;;;;;;5028937;28;20463;-75
2021/10/28 22:24:59;;;;;;;20.70;13.43;;;4.80;99.90;;;;;;5032773;28;20460;-75
2021/10/28 22:27:27;;;;;;;18.63;12.30;;;4.80;99.90;;;;;;5034814;28;20404;-75
2021/10/28 22:29:54;;;;;;;20.97;13.60;;;4.80;99.90;;;;;;5032551;28;20215;-75
2021/10/28 22:32:20;;;;;;;22.00;14.20;;;4.80;99.90;;;;;;5032033;28;20505;-74
2021/10/28 22:34:46;;;;;;;21.50;12.97;;;4.70;99.90;;;;;;5032389;28;20989;-74
2021/10/28 22:37:22;;;;;;;20.20;13.40;;;4.80;99.90;;;;;;5033422;28;20426;-75
2021/10/28 22:42:40;;;;;;;20.80;14.50;;;4.70;99.90;;;;;;5002681;28;20459;-75
2021/10/28 22:45:06;;;;;;;26.03;14.37;;;4.70;99.90;;;;;;5032211;28;20520;-74
2021/10/28 22:47:32;;;;;;;18.10;12.00;;;4.70;99.90;;;;;;5034393;28;20468;-75
2021/10/28 22:50:00;;;;;;;22.40;13.73;;;4.70;99.90;;;;;;5030491;28;20969;-75
2021/10/28 22:52:30;;;;;;;22.27;13.97;;;4.70;99.90;;;;;;5030402;28;20689;-75
2021/10/28 22:55:10;;;;;;;24.60;13.00;;;4.70;99.90;;;;;;5035103;28;20497;-75
2021/10/28 22:57:50;;;;;;;19.50;12.90;;;4.60;99.90;;;;;;5032540;28;20435;-75
2021/10/28 23:01:06;;;;;;;20.17;13.70;;;4.60;99.90;;;;;;5033991;28;20379;-75
2021/10/28 23:06:12;;;;;;;25.67;14.40;;;4.60;99.90;;;;;;5030614;28;20437;-74
2021/10/28 23:16:51;;;;;;;22.00;14.50;;;4.60;99.90;;;;;;5032264;28;20422;-75
2021/10/28 23:22:00;;;;;;;22.97;14.80;;;4.60;99.90;;;;;;5029453;28;20506;-74
2021/10/28 23:24:26;;;;;;;25.27;12.63;;;4.60;99.90;;;;;;5031376;28;20934;-76
2021/10/28 23:26:52;;;;;;;25.13;14.77;;;4.60;99.90;;;;;;5031506;28;20262;-75
2021/10/28 23:29:17;;;;;;;21.33;14.47;;;4.50;99.90;;;;;;5033452;28;20192;-75
2021/10/28 23:31:43;;;;;;;19.47;12.60;;;4.50;99.90;;;;;;5033455;28;20212;-75
2021/10/28 23:34:11;;;;;;;20.13;13.20;;;4.50;99.90;;;;;;5024959;28;20220;-75
2021/10/28 23:36:36;;;;;;;25.80;14.50;;;4.50;99.90;;;;;;5030732;28;20184;-75
2021/10/28 23:39:02;;;;;;;25.03;14.50;;;4.40;99.90;;;;;;5031226;28;20435;-75
2021/10/28 23:41:28;;;;;;;18.57;12.40;;;4.40;99.90;;;;;;5033414;28;20835;-75
2021/10/28 23:43:53;;;;;;;20.10;13.90;;;4.40;99.90;;;;;;5029746;28;20444;-75
2021/10/28 23:46:19;;;;;;;17.63;12.57;;;4.30;99.90;;;;;;5033215;28;20203;-75
2021/10/28 23:48:44;;;;;;;19.40;12.37;;;4.30;99.90;;;;;;5031033;28;20181;-75
2021/10/28 23:51:10;;;;;;;20.73;13.70;;;4.30;99.90;;;;;;5026392;28;20213;-75
2021/10/28 23:53:35;;;;;;;14.97;12.80;;;4.30;99.90;;;;;;5030817;28;20222;-75
2021/10/28 23:56:01;;;;;;;19.23;13.53;;;4.30;99.90;;;;;;5030825;28;20189;-75
2021/10/28 23:58:26;;;;;;;18.70;12.10;;;4.20;99.90;;;;;;5031853;28;20260;-75
